sensor_id;sensor_type;location;lat;lon;timestamp;pressure;altitude;pressure_sealevel;temperature
68012;BMP180;54794;48.348;7.878;2022-07-25T00:00:25;98829.00;;;26.80
68012;BMP180;54794;48.348;7.878;2022-07-25T00:02:52;98829.00;;;26.70
68012;BMP180;54794;48.348;7.878;2022-07-25T00:05:20;98830.00;;;26.70
68012;BMP180;54794;48.348;7.878;2022-07-25T00:07:47;98831.00;;;26.70
68012;BMP180;54794;48.348;7.878;2022-07-25T00:10:14;98823.00;;;26.60
68012;BMP180;54794;48.348;7.878;2022-07-25T00:12:42;98821.00;;;26.60
68012;BMP180;54794;48.348;7.878;2022-07-25T00:15:10;98812.00;;;26.60
68012;BMP180;54794;48.348;7.878;2022-07-25T00:17:38;98818.00;;;26.50
68012;BMP180;54794;48.348;7.878;2022-07-25T00:20:06;98817.00;;;26.50
68012;BMP180;54794;48.348;7.878;2022-07-25T00:22:34;98808.00;;;26.50
68012;BMP180;54794;48.348;7.878;2022-07-25T00:25:02;98809.00;;;26.40
68012;BMP180;54794;48.348;7.878;2022-07-25T00:27:29;98818.00;;;26.40
68012;BMP180;54794;48.348;7.878;2022-07-25T00:29:56;98813.00;;;26.30
68012;BMP180;54794;48.348;7.878;2022-07-25T00:32:23;98819.00;;;26.30
68012;BMP180;54794;48.348;7.878;2022-07-25T00:34:50;98791.00;;;26.30
68012;BMP180;54794;48.348;7.878;2022-07-25T00:37:17;98804.00;;;26.30
68012;BMP180;54794;48.348;7.878;2022-07-25T00:39:44;98808.00;;;26.20
68012;BMP180;54794;48.348;7.878;2022-07-25T00:42:10;98794.00;;;26.20
68012;BMP180;54794;48.348;7.878;2022-07-25T00:44:37;98801.00;;;26.20
68012;BMP180;54794;48.348;7.878;2022-07-25T00:47:04;98798.00;;;26.20
68012;BMP180;54794;48.348;7.878;2022-07-25T00:49:31;98796.00;;;26.20
68012;BMP180;54794;48.348;7.878;2022-07-25T00:51:59;98800.00;;;26.10
68012;BMP180;54794;48.348;7.878;2022-07-25T00:54:27;98805.00;;;26.10
68012;BMP180;54794;48.348;7.878;2022-07-25T00:56:55;98809.00;;;26.10
68012;BMP180;54794;48.348;7.878;2022-07-25T00:59:22;98798.00;;;26.10
68012;BMP180;54794;48.348;7.878;2022-07-25T01:01:49;98802.00;;;26.10
68012;BMP180;54794;48.348;7.878;2022-07-25T01:04:17;98791.00;;;26.10
68012;BMP180;54794;48.348;7.878;2022-07-25T01:06:44;98787.00;;;26.00
68012;BMP180;54794;48.348;7.878;2022-07-25T01:09:12;98800.00;;;26.00
68012;BMP180;54794;48.348;7.878;2022-07-25T01:11:39;98796.00;;;26.00
68012;BMP180;54794;48.348;7.878;2022-07-25T01:14:06;98792.00;;;26.00
68012;BMP180;54794;48.348;7.878;2022-07-25T01:16:34;98781.00;;;26.00
68012;BMP180;54794;48.348;7.878;2022-07-25T01:19:01;98783.00;;;25.90
68012;BMP180;54794;48.348;7.878;2022-07-25T01:21:28;98780.00;;;25.90
68012;BMP180;54794;48.348;7.878;2022-07-25T01:23:55;98767.00;;;25.80
68012;BMP180;54794;48.348;7.878;2022-07-25T01:26:22;98763.00;;;25.90
68012;BMP180;54794;48.348;7.878;2022-07-25T01:28:49;98737.00;;;25.80
68012;BMP180;54794;48.348;7.878;2022-07-25T01:31:16;98746.00;;;25.80
68012;BMP180;54794;48.348;7.878;2022-07-25T01:33:43;98745.00;;;25.80
68012;BMP180;54794;48.348;7.878;2022-07-25T01:36:10;98740.00;;;25.80
68012;BMP180;54794;48.348;7.878;2022-07-25T01:38:37;98741.00;;;25.80
68012;BMP180;54794;48.348;7.878;2022-07-25T01:41:04;98742.00;;;25.70
68012;BMP180;54794;48.348;7.878;2022-07-25T01:43:31;98744.00;;;25.70
68012;BMP180;54794;48.348;7.878;2022-07-25T01:45:58;98749.00;;;25.70
68012;BMP180;54794;48.348;7.878;2022-07-25T01:48:25;98746.00;;;25.70
68012;BMP180;54794;48.348;7.878;2022-07-25T01:50:52;98745.00;;;25.70
68012;BMP180;54794;48.348;7.878;2022-07-25T01:53:20;98741.00;;;25.60
68012;BMP180;54794;48.348;7.878;2022-07-25T01:55:47;98754.00;;;25.60
68012;BMP180;54794;48.348;7.878;2022-07-25T01:58:14;98749.00;;;25.60
68012;BMP180;54794;48.348;7.878;2022-07-25T02:00:41;98724.00;;;25.60
68012;BMP180;54794;48.348;7.878;2022-07-25T02:03:08;98750.00;;;25.50
68012;BMP180;54794;48.348;7.878;2022-07-25T02:05:54;98736.00;;;25.50
68012;BMP180;54794;48.348;7.878;2022-07-25T02:08:21;98741.00;;;25.40
68012;BMP180;54794;48.348;7.878;2022-07-25T02:10:49;98739.00;;;25.40
68012;BMP180;54794;48.348;7.878;2022-07-25T02:13:16;98727.00;;;25.40
68012;BMP180;54794;48.348;7.878;2022-07-25T02:15:43;98720.00;;;25.30
68012;BMP180;54794;48.348;7.878;2022-07-25T02:18:10;98723.00;;;25.30
68012;BMP180;54794;48.348;7.878;2022-07-25T02:20:37;98729.00;;;25.20
68012;BMP180;54794;48.348;7.878;2022-07-25T02:23:04;98725.00;;;25.20
68012;BMP180;54794;48.348;7.878;2022-07-25T02:25:32;98710.00;;;25.20
68012;BMP180;54794;48.348;7.878;2022-07-25T02:27:59;98723.00;;;25.20
68012;BMP180;54794;48.348;7.878;2022-07-25T02:30:27;98724.00;;;25.20
68012;BMP180;54794;48.348;7.878;2022-07-25T02:32:54;98713.00;;;25.20
68012;BMP180;54794;48.348;7.878;2022-07-25T02:35:21;98715.00;;;25.20
68012;BMP180;54794;48.348;7.878;2022-07-25T02:37:48;98731.00;;;25.10
68012;BMP180;54794;48.348;7.878;2022-07-25T02:40:15;98731.00;;;25.10
68012;BMP180;54794;48.348;7.878;2022-07-25T02:42:42;98730.00;;;25.10
68012;BMP180;54794;48.348;7.878;2022-07-25T02:45:09;98729.00;;;25.10
68012;BMP180;54794;48.348;7.878;2022-07-25T02:47:36;98722.00;;;25.10
68012;BMP180;54794;48.348;7.878;2022-07-25T02:50:04;98712.00;;;25.10
68012;BMP180;54794;48.348;7.878;2022-07-25T02:52:31;98723.00;;;25.10
68012;BMP180;54794;48.348;7.878;2022-07-25T02:54:59;98711.00;;;25.10
68012;BMP180;54794;48.348;7.878;2022-07-25T02:57:27;98710.00;;;25.10
68012;BMP180;54794;48.348;7.878;2022-07-25T02:59:54;98714.00;;;25.10
68012;BMP180;54794;48.348;7.878;2022-07-25T03:02:21;98704.00;;;25.10
68012;BMP180;54794;48.348;7.878;2022-07-25T03:04:48;98707.00;;;25.00
68012;BMP180;54794;48.348;7.878;2022-07-25T03:07:15;98719.00;;;25.00
68012;BMP180;54794;48.348;7.878;2022-07-25T03:09:42;98716.00;;;25.00
68012;BMP180;54794;48.348;7.878;2022-07-25T03:12:09;98712.00;;;25.00
68012;BMP180;54794;48.348;7.878;2022-07-25T03:14:36;98716.00;;;25.00
68012;BMP180;54794;48.348;7.878;2022-07-25T03:17:03;98716.00;;;24.90
68012;BMP180;54794;48.348;7.878;2022-07-25T03:19:30;98728.00;;;24.90
68012;BMP180;54794;48.348;7.878;2022-07-25T03:21:58;98719.00;;;24.90
68012;BMP180;54794;48.348;7.878;2022-07-25T03:24:24;98718.00;;;24.90
68012;BMP180;54794;48.348;7.878;2022-07-25T03:26:51;98719.00;;;24.80
68012;BMP180;54794;48.348;7.878;2022-07-25T03:29:18;98724.00;;;24.80
68012;BMP180;54794;48.348;7.878;2022-07-25T03:31:45;98706.00;;;24.80
68012;BMP180;54794;48.348;7.878;2022-07-25T03:34:12;98704.00;;;24.80
68012;BMP180;54794;48.348;7.878;2022-07-25T03:36:39;98690.00;;;24.70
68012;BMP180;54794;48.348;7.878;2022-07-25T03:39:06;98686.00;;;24.70
68012;BMP180;54794;48.348;7.878;2022-07-25T03:41:33;98691.00;;;24.70
68012;BMP180;54794;48.348;7.878;2022-07-25T03:43:59;98703.00;;;24.70
68012;BMP180;54794;48.348;7.878;2022-07-25T03:46:26;98707.00;;;24.70
68012;BMP180;54794;48.348;7.878;2022-07-25T03:48:53;98719.00;;;24.70
68012;BMP180;54794;48.348;7.878;2022-07-25T03:51:21;98703.00;;;24.60
68012;BMP180;54794;48.348;7.878;2022-07-25T03:53:48;98706.00;;;24.60
68012;BMP180;54794;48.348;7.878;2022-07-25T03:56:38;98703.00;;;24.60
68012;BMP180;54794;48.348;7.878;2022-07-25T03:59:12;98703.00;;;24.60
68012;BMP180;54794;48.348;7.878;2022-07-25T04:01:41;98704.00;;;24.60
68012;BMP180;54794;48.348;7.878;2022-07-25T04:04:08;98703.00;;;24.60
68012;BMP180;54794;48.348;7.878;2022-07-25T04:06:37;98697.00;;;24.60
68012;BMP180;54794;48.348;7.878;2022-07-25T04:09:06;98692.00;;;24.60
68012;BMP180;54794;48.348;7.878;2022-07-25T04:11:33;98701.00;;;24.60
68012;BMP180;54794;48.348;7.878;2022-07-25T04:14:02;98679.00;;;24.60
68012;BMP180;54794;48.348;7.878;2022-07-25T04:16:30;98688.00;;;24.60
68012;BMP180;54794;48.348;7.878;2022-07-25T04:18:57;98671.00;;;24.50
68012;BMP180;54794;48.348;7.878;2022-07-25T04:21:26;98673.00;;;24.50
68012;BMP180;54794;48.348;7.878;2022-07-25T04:23:53;98687.00;;;24.50
68012;BMP180;54794;48.348;7.878;2022-07-25T04:26:20;98679.00;;;24.50
68012;BMP180;54794;48.348;7.878;2022-07-25T04:28:47;98684.00;;;24.50
68012;BMP180;54794;48.348;7.878;2022-07-25T04:31:14;98689.00;;;24.50
68012;BMP180;54794;48.348;7.878;2022-07-25T04:33:42;98680.00;;;24.50
68012;BMP180;54794;48.348;7.878;2022-07-25T04:36:09;98671.00;;;24.50
68012;BMP180;54794;48.348;7.878;2022-07-25T04:38:36;98668.00;;;24.50
68012;BMP180;54794;48.348;7.878;2022-07-25T04:41:03;98673.00;;;24.50
68012;BMP180;54794;48.348;7.878;2022-07-25T04:43:30;98681.00;;;24.40
68012;BMP180;54794;48.348;7.878;2022-07-25T04:45:57;98681.00;;;24.40
68012;BMP180;54794;48.348;7.878;2022-07-25T04:48:25;98679.00;;;24.40
68012;BMP180;54794;48.348;7.878;2022-07-25T04:50:52;98678.00;;;24.40
68012;BMP180;54794;48.348;7.878;2022-07-25T04:53:20;98670.00;;;24.40
68012;BMP180;54794;48.348;7.878;2022-07-25T04:55:47;98679.00;;;24.40
68012;BMP180;54794;48.348;7.878;2022-07-25T04:58:14;98683.00;;;24.40
68012;BMP180;54794;48.348;7.878;2022-07-25T05:00:41;98679.00;;;24.40
68012;BMP180;54794;48.348;7.878;2022-07-25T05:03:08;98678.00;;;24.40
68012;BMP180;54794;48.348;7.878;2022-07-25T05:05:36;98657.00;;;24.40
68012;BMP180;54794;48.348;7.878;2022-07-25T05:08:03;98664.00;;;24.50
68012;BMP180;54794;48.348;7.878;2022-07-25T05:10:30;98665.00;;;24.50
68012;BMP180;54794;48.348;7.878;2022-07-25T05:12:57;98671.00;;;24.50
68012;BMP180;54794;48.348;7.878;2022-07-25T05:15:24;98673.00;;;24.50
68012;BMP180;54794;48.348;7.878;2022-07-25T05:17:51;98677.00;;;24.50
68012;BMP180;54794;48.348;7.878;2022-07-25T05:20:18;98678.00;;;24.50
68012;BMP180;54794;48.348;7.878;2022-07-25T05:22:45;98680.00;;;24.50
68012;BMP180;54794;48.348;7.878;2022-07-25T05:25:13;98670.00;;;24.50
68012;BMP180;54794;48.348;7.878;2022-07-25T05:27:40;98675.00;;;24.60
68012;BMP180;54794;48.348;7.878;2022-07-25T05:30:09;98653.00;;;24.50
68012;BMP180;54794;48.348;7.878;2022-07-25T05:32:37;98664.00;;;24.60
68012;BMP180;54794;48.348;7.878;2022-07-25T05:35:08;98666.00;;;24.60
68012;BMP180;54794;48.348;7.878;2022-07-25T05:37:36;98666.00;;;24.70
68012;BMP180;54794;48.348;7.878;2022-07-25T05:40:05;98663.00;;;24.70
68012;BMP180;54794;48.348;7.878;2022-07-25T05:42:32;98669.00;;;24.80
68012;BMP180;54794;48.348;7.878;2022-07-25T05:45:00;98671.00;;;24.80
68012;BMP180;54794;48.348;7.878;2022-07-25T05:47:27;98677.00;;;24.80
68012;BMP180;54794;48.348;7.878;2022-07-25T05:49:54;98677.00;;;24.90
68012;BMP180;54794;48.348;7.878;2022-07-25T05:52:21;98666.00;;;24.90
68012;BMP180;54794;48.348;7.878;2022-07-25T05:54:48;98679.00;;;25.00
68012;BMP180;54794;48.348;7.878;2022-07-25T05:57:15;98670.00;;;25.00
68012;BMP180;54794;48.348;7.878;2022-07-25T05:59:42;98669.00;;;25.10
68012;BMP180;54794;48.348;7.878;2022-07-25T06:02:09;98663.00;;;25.20
68012;BMP180;54794;48.348;7.878;2022-07-25T06:04:37;98661.00;;;25.20
68012;BMP180;54794;48.348;7.878;2022-07-25T06:07:03;98666.00;;;25.30
68012;BMP180;54794;48.348;7.878;2022-07-25T06:09:30;98672.00;;;25.40
68012;BMP180;54794;48.348;7.878;2022-07-25T06:11:57;98673.00;;;25.40
68012;BMP180;54794;48.348;7.878;2022-07-25T06:14:28;98666.00;;;25.50
68012;BMP180;54794;48.348;7.878;2022-07-25T06:16:56;98668.00;;;25.60
68012;BMP180;54794;48.348;7.878;2022-07-25T06:19:23;98657.00;;;25.70
68012;BMP180;54794;48.348;7.878;2022-07-25T06:21:50;98656.00;;;25.70
68012;BMP180;54794;48.348;7.878;2022-07-25T06:24:16;98648.00;;;25.80
68012;BMP180;54794;48.348;7.878;2022-07-25T06:26:43;98650.00;;;25.90
68012;BMP180;54794;48.348;7.878;2022-07-25T06:29:11;98648.00;;;26.00
68012;BMP180;54794;48.348;7.878;2022-07-25T06:31:38;98643.00;;;26.10
68012;BMP180;54794;48.348;7.878;2022-07-25T06:34:05;98644.00;;;26.20
68012;BMP180;54794;48.348;7.878;2022-07-25T06:36:33;98643.00;;;26.30
68012;BMP180;54794;48.348;7.878;2022-07-25T06:39:00;98640.00;;;26.30
68012;BMP180;54794;48.348;7.878;2022-07-25T06:41:28;98662.00;;;26.50
68012;BMP180;54794;48.348;7.878;2022-07-25T06:43:55;98650.00;;;26.60
68012;BMP180;54794;48.348;7.878;2022-07-25T06:46:21;98654.00;;;26.70
68012;BMP180;54794;48.348;7.878;2022-07-25T06:48:48;98657.00;;;26.80
68012;BMP180;54794;48.348;7.878;2022-07-25T06:51:15;98649.00;;;26.90
68012;BMP180;54794;48.348;7.878;2022-07-25T06:53:42;98647.00;;;27.00
68012;BMP180;54794;48.348;7.878;2022-07-25T06:56:09;98654.00;;;27.20
68012;BMP180;54794;48.348;7.878;2022-07-25T06:58:43;98652.00;;;27.30
68012;BMP180;54794;48.348;7.878;2022-07-25T07:01:10;98648.00;;;27.40
68012;BMP180;54794;48.348;7.878;2022-07-25T07:03:37;98643.00;;;27.50
68012;BMP180;54794;48.348;7.878;2022-07-25T07:06:08;98653.00;;;27.70
68012;BMP180;54794;48.348;7.878;2022-07-25T07:08:35;98652.00;;;27.80
68012;BMP180;54794;48.348;7.878;2022-07-25T07:11:04;98656.00;;;28.00
68012;BMP180;54794;48.348;7.878;2022-07-25T07:13:32;98648.00;;;28.10
68012;BMP180;54794;48.348;7.878;2022-07-25T07:16:00;98651.00;;;28.20
68012;BMP180;54794;48.348;7.878;2022-07-25T07:18:27;98642.00;;;28.30
68012;BMP180;54794;48.348;7.878;2022-07-25T07:20:54;98648.00;;;28.50
68012;BMP180;54794;48.348;7.878;2022-07-25T07:23:20;98650.00;;;28.60
68012;BMP180;54794;48.348;7.878;2022-07-25T07:25:50;98647.00;;;28.80
68012;BMP180;54794;48.348;7.878;2022-07-25T07:28:17;98648.00;;;28.90
68012;BMP180;54794;48.348;7.878;2022-07-25T07:30:44;98651.00;;;29.00
68012;BMP180;54794;48.348;7.878;2022-07-25T07:33:31;98640.00;;;29.20
68012;BMP180;54794;48.348;7.878;2022-07-25T07:36:00;98639.00;;;29.30
68012;BMP180;54794;48.348;7.878;2022-07-25T07:38:27;98640.00;;;29.50
68012;BMP180;54794;48.348;7.878;2022-07-25T07:40:54;98656.00;;;29.60
68012;BMP180;54794;48.348;7.878;2022-07-25T07:43:21;98652.00;;;29.70
68012;BMP180;54794;48.348;7.878;2022-07-25T07:45:56;98656.00;;;29.90
68012;BMP180;54794;48.348;7.878;2022-07-25T07:48:26;98667.00;;;30.00
68012;BMP180;54794;48.348;7.878;2022-07-25T07:50:53;98656.00;;;30.20
68012;BMP180;54794;48.348;7.878;2022-07-25T07:53:20;98663.00;;;30.30
68012;BMP180;54794;48.348;7.878;2022-07-25T07:55:47;98665.00;;;30.50
68012;BMP180;54794;48.348;7.878;2022-07-25T07:58:20;98656.00;;;30.60
68012;BMP180;54794;48.348;7.878;2022-07-25T08:00:49;98651.00;;;30.70
68012;BMP180;54794;48.348;7.878;2022-07-25T08:03:19;98656.00;;;30.90
68012;BMP180;54794;48.348;7.878;2022-07-25T08:05:47;98658.00;;;31.00
68012;BMP180;54794;48.348;7.878;2022-07-25T08:08:15;98661.00;;;31.20
68012;BMP180;54794;48.348;7.878;2022-07-25T08:10:45;98655.00;;;31.30
68012;BMP180;54794;48.348;7.878;2022-07-25T08:13:30;98657.00;;;31.50
68012;BMP180;54794;48.348;7.878;2022-07-25T08:16:01;98656.00;;;31.60
68012;BMP180;54794;48.348;7.878;2022-07-25T08:18:30;98658.00;;;31.70
68012;BMP180;54794;48.348;7.878;2022-07-25T08:21:02;98660.00;;;31.90
68012;BMP180;54794;48.348;7.878;2022-07-25T08:23:34;98659.00;;;32.00
68012;BMP180;54794;48.348;7.878;2022-07-25T08:26:04;98662.00;;;32.20
68012;BMP180;54794;48.348;7.878;2022-07-25T08:28:32;98641.00;;;32.40
68012;BMP180;54794;48.348;7.878;2022-07-25T08:30:59;98657.00;;;32.50
68012;BMP180;54794;48.348;7.878;2022-07-25T08:33:26;98661.00;;;32.70
68012;BMP180;54794;48.348;7.878;2022-07-25T08:35:55;98659.00;;;32.80
68012;BMP180;54794;48.348;7.878;2022-07-25T08:38:25;98654.00;;;32.90
68012;BMP180;54794;48.348;7.878;2022-07-25T08:40:55;98663.00;;;33.10
68012;BMP180;54794;48.348;7.878;2022-07-25T08:43:23;98656.00;;;33.20
68012;BMP180;54794;48.348;7.878;2022-07-25T08:45:52;98658.00;;;33.30
68012;BMP180;54794;48.348;7.878;2022-07-25T08:48:25;98651.00;;;33.50
68012;BMP180;54794;48.348;7.878;2022-07-25T08:50:53;98649.00;;;33.60
68012;BMP180;54794;48.348;7.878;2022-07-25T08:53:23;98653.00;;;33.70
68012;BMP180;54794;48.348;7.878;2022-07-25T08:56:02;98658.00;;;33.70
68012;BMP180;54794;48.348;7.878;2022-07-25T08:58:39;98646.00;;;33.90
68012;BMP180;54794;48.348;7.878;2022-07-25T09:01:07;98665.00;;;34.00
68012;BMP180;54794;48.348;7.878;2022-07-25T09:03:34;98666.00;;;34.10
68012;BMP180;54794;48.348;7.878;2022-07-25T09:06:21;98660.00;;;34.20
68012;BMP180;54794;48.348;7.878;2022-07-25T09:08:57;98656.00;;;34.40
68012;BMP180;54794;48.348;7.878;2022-07-25T09:11:36;98649.00;;;34.60
68012;BMP180;54794;48.348;7.878;2022-07-25T09:14:09;98642.00;;;34.70
68012;BMP180;54794;48.348;7.878;2022-07-25T09:16:43;98658.00;;;34.90
68012;BMP180;54794;48.348;7.878;2022-07-25T09:19:19;98658.00;;;35.00
68012;BMP180;54794;48.348;7.878;2022-07-25T09:22:07;98662.00;;;35.20
68012;BMP180;54794;48.348;7.878;2022-07-25T09:24:36;98648.00;;;35.30
68012;BMP180;54794;48.348;7.878;2022-07-25T09:27:10;98657.00;;;35.40
68012;BMP180;54794;48.348;7.878;2022-07-25T09:29:39;98660.00;;;35.50
68012;BMP180;54794;48.348;7.878;2022-07-25T09:32:19;98653.00;;;35.60
68012;BMP180;54794;48.348;7.878;2022-07-25T09:34:48;98643.00;;;35.70
68012;BMP180;54794;48.348;7.878;2022-07-25T09:37:23;98646.00;;;35.90
68012;BMP180;54794;48.348;7.878;2022-07-25T09:39:51;98649.00;;;36.00
68012;BMP180;54794;48.348;7.878;2022-07-25T09:42:23;98649.00;;;36.10
68012;BMP180;54794;48.348;7.878;2022-07-25T09:45:02;98633.00;;;36.30
68012;BMP180;54794;48.348;7.878;2022-07-25T09:47:33;98639.00;;;36.40
68012;BMP180;54794;48.348;7.878;2022-07-25T09:50:00;98637.00;;;36.50
68012;BMP180;54794;48.348;7.878;2022-07-25T09:52:27;98630.00;;;36.60
68012;BMP180;54794;48.348;7.878;2022-07-25T09:54:54;98635.00;;;36.70
68012;BMP180;54794;48.348;7.878;2022-07-25T09:57:22;98633.00;;;36.70
68012;BMP180;54794;48.348;7.878;2022-07-25T09:59:51;98633.00;;;36.90
68012;BMP180;54794;48.348;7.878;2022-07-25T10:02:29;98635.00;;;37.10
68012;BMP180;54794;48.348;7.878;2022-07-25T10:05:33;98635.00;;;37.20
68012;BMP180;54794;48.348;7.878;2022-07-25T10:08:06;98627.00;;;37.30
68012;BMP180;54794;48.348;7.878;2022-07-25T10:10:40;98632.00;;;37.40
68012;BMP180;54794;48.348;7.878;2022-07-25T10:13:10;98624.00;;;37.50
68012;BMP180;54794;48.348;7.878;2022-07-25T10:15:47;98627.00;;;37.60
68012;BMP180;54794;48.348;7.878;2022-07-25T10:18:17;98627.00;;;37.60
68012;BMP180;54794;48.348;7.878;2022-07-25T10:20:47;98631.00;;;37.80
68012;BMP180;54794;48.348;7.878;2022-07-25T10:23:26;98631.00;;;37.90
68012;BMP180;54794;48.348;7.878;2022-07-25T10:26:14;98628.00;;;37.90
68012;BMP180;54794;48.348;7.878;2022-07-25T10:28:49;98623.00;;;37.90
68012;BMP180;54794;48.348;7.878;2022-07-25T10:31:33;98622.00;;;38.00
68012;BMP180;54794;48.348;7.878;2022-07-25T10:34:08;98621.00;;;38.10
68012;BMP180;54794;48.348;7.878;2022-07-25T10:36:50;98634.00;;;38.10
68012;BMP180;54794;48.348;7.878;2022-07-25T10:39:20;98630.00;;;38.10
68012;BMP180;54794;48.348;7.878;2022-07-25T10:41:54;98617.00;;;38.10
68012;BMP180;54794;48.348;7.878;2022-07-25T10:44:21;98619.00;;;38.10
68012;BMP180;54794;48.348;7.878;2022-07-25T10:46:48;98617.00;;;38.20
68012;BMP180;54794;48.348;7.878;2022-07-25T10:49:23;98630.00;;;38.20
68012;BMP180;54794;48.348;7.878;2022-07-25T10:52:00;98632.00;;;38.30
68012;BMP180;54794;48.348;7.878;2022-07-25T10:54:37;98627.00;;;38.40
68012;BMP180;54794;48.348;7.878;2022-07-25T10:57:13;98629.00;;;38.40
68012;BMP180;54794;48.348;7.878;2022-07-25T10:59:41;98631.00;;;38.50
68012;BMP180;54794;48.348;7.878;2022-07-25T11:02:11;98626.00;;;38.60
68012;BMP180;54794;48.348;7.878;2022-07-25T11:05:13;98634.00;;;38.60
68012;BMP180;54794;48.348;7.878;2022-07-25T11:07:49;98623.00;;;38.70
68012;BMP180;54794;48.348;7.878;2022-07-25T11:10:38;98617.00;;;38.80
68012;BMP180;54794;48.348;7.878;2022-07-25T11:13:13;98621.00;;;38.90
68012;BMP180;54794;48.348;7.878;2022-07-25T11:15:41;98613.00;;;38.90
68012;BMP180;54794;48.348;7.878;2022-07-25T11:18:09;98616.00;;;38.90
68012;BMP180;54794;48.348;7.878;2022-07-25T11:20:37;98622.00;;;38.90
68012;BMP180;54794;48.348;7.878;2022-07-25T11:23:04;98623.00;;;38.80
68012;BMP180;54794;48.348;7.878;2022-07-25T11:25:32;98615.00;;;38.70
68012;BMP180;54794;48.348;7.878;2022-07-25T11:28:00;98619.00;;;38.70
68012;BMP180;54794;48.348;7.878;2022-07-25T11:30:28;98621.00;;;38.70
68012;BMP180;54794;48.348;7.878;2022-07-25T11:32:59;98616.00;;;38.70
68012;BMP180;54794;48.348;7.878;2022-07-25T11:35:31;98617.00;;;38.60
68012;BMP180;54794;48.348;7.878;2022-07-25T11:38:00;98607.00;;;38.70
68012;BMP180;54794;48.348;7.878;2022-07-25T11:40:29;98605.00;;;38.70
68012;BMP180;54794;48.348;7.878;2022-07-25T11:42:58;98598.00;;;38.80
68012;BMP180;54794;48.348;7.878;2022-07-25T11:45:32;98600.00;;;38.90
68012;BMP180;54794;48.348;7.878;2022-07-25T11:48:12;98600.00;;;39.00
68012;BMP180;54794;48.348;7.878;2022-07-25T11:50:43;98590.00;;;39.00
68012;BMP180;54794;48.348;7.878;2022-07-25T11:53:13;98594.00;;;39.10
68012;BMP180;54794;48.348;7.878;2022-07-25T11:55:42;98591.00;;;39.20
68012;BMP180;54794;48.348;7.878;2022-07-25T11:58:11;98583.00;;;39.30
68012;BMP180;54794;48.348;7.878;2022-07-25T12:00:45;98590.00;;;39.50
68012;BMP180;54794;48.348;7.878;2022-07-25T12:03:17;98585.00;;;39.60
68012;BMP180;54794;48.348;7.878;2022-07-25T12:05:48;98586.00;;;39.80
68012;BMP180;54794;48.348;7.878;2022-07-25T12:08:20;98588.00;;;39.80
68012;BMP180;54794;48.348;7.878;2022-07-25T12:10:49;98580.00;;;39.90
68012;BMP180;54794;48.348;7.878;2022-07-25T12:13:26;98577.00;;;39.90
68012;BMP180;54794;48.348;7.878;2022-07-25T12:15:56;98571.00;;;40.00
68012;BMP180;54794;48.348;7.878;2022-07-25T12:18:25;98574.00;;;40.00
68012;BMP180;54794;48.348;7.878;2022-07-25T12:20:52;98576.00;;;40.00
68012;BMP180;54794;48.348;7.878;2022-07-25T12:23:19;98580.00;;;40.00
68012;BMP180;54794;48.348;7.878;2022-07-25T12:25:47;98574.00;;;40.00
68012;BMP180;54794;48.348;7.878;2022-07-25T12:28:15;98580.00;;;39.90
68012;BMP180;54794;48.348;7.878;2022-07-25T12:30:43;98570.00;;;39.90
68012;BMP180;54794;48.348;7.878;2022-07-25T12:33:12;98573.00;;;39.80
68012;BMP180;54794;48.348;7.878;2022-07-25T12:35:40;98577.00;;;39.80
68012;BMP180;54794;48.348;7.878;2022-07-25T12:38:08;98569.00;;;39.80
68012;BMP180;54794;48.348;7.878;2022-07-25T12:40:37;98579.00;;;39.80
68012;BMP180;54794;48.348;7.878;2022-07-25T12:43:05;98567.00;;;39.80
68012;BMP180;54794;48.348;7.878;2022-07-25T12:45:32;98572.00;;;39.90
68012;BMP180;54794;48.348;7.878;2022-07-25T12:47:59;98580.00;;;40.00
68012;BMP180;54794;48.348;7.878;2022-07-25T12:50:26;98565.00;;;40.00
68012;BMP180;54794;48.348;7.878;2022-07-25T12:52:53;98578.00;;;40.10
68012;BMP180;54794;48.348;7.878;2022-07-25T12:55:20;98580.00;;;40.10
68012;BMP180;54794;48.348;7.878;2022-07-25T12:57:48;98590.00;;;40.30
68012;BMP180;54794;48.348;7.878;2022-07-25T13:00:19;98584.00;;;40.30
68012;BMP180;54794;48.348;7.878;2022-07-25T13:02:48;98589.00;;;40.30
68012;BMP180;54794;48.348;7.878;2022-07-25T13:05:18;98586.00;;;40.30
68012;BMP180;54794;48.348;7.878;2022-07-25T13:07:45;98588.00;;;40.30
68012;BMP180;54794;48.348;7.878;2022-07-25T13:10:15;98585.00;;;40.20
68012;BMP180;54794;48.348;7.878;2022-07-25T13:12:42;98574.00;;;40.20
68012;BMP180;54794;48.348;7.878;2022-07-25T13:15:09;98580.00;;;40.10
68012;BMP180;54794;48.348;7.878;2022-07-25T13:17:37;98588.00;;;40.00
68012;BMP180;54794;48.348;7.878;2022-07-25T13:20:04;98581.00;;;39.90
68012;BMP180;54794;48.348;7.878;2022-07-25T13:22:32;98570.00;;;39.80
68012;BMP180;54794;48.348;7.878;2022-07-25T13:24:58;98577.00;;;39.70
68012;BMP180;54794;48.348;7.878;2022-07-25T13:27:25;98581.00;;;39.60
68012;BMP180;54794;48.348;7.878;2022-07-25T13:29:52;98580.00;;;39.50
68012;BMP180;54794;48.348;7.878;2022-07-25T13:32:21;98576.00;;;39.40
68012;BMP180;54794;48.348;7.878;2022-07-25T13:34:49;98575.00;;;39.30
68012;BMP180;54794;48.348;7.878;2022-07-25T13:37:16;98571.00;;;39.30
68012;BMP180;54794;48.348;7.878;2022-07-25T13:39:43;98582.00;;;39.20
68012;BMP180;54794;48.348;7.878;2022-07-25T13:42:10;98587.00;;;39.10
68012;BMP180;54794;48.348;7.878;2022-07-25T13:44:37;98573.00;;;39.00
68012;BMP180;54794;48.348;7.878;2022-07-25T13:47:04;98567.00;;;39.00
68012;BMP180;54794;48.348;7.878;2022-07-25T13:49:31;98579.00;;;39.00
68012;BMP180;54794;48.348;7.878;2022-07-25T13:51:58;98576.00;;;38.90
68012;BMP180;54794;48.348;7.878;2022-07-25T13:54:25;98572.00;;;38.90
68012;BMP180;54794;48.348;7.878;2022-07-25T13:56:53;98575.00;;;38.90
68012;BMP180;54794;48.348;7.878;2022-07-25T13:59:20;98578.00;;;38.80
68012;BMP180;54794;48.348;7.878;2022-07-25T14:01:49;98579.00;;;38.80
68012;BMP180;54794;48.348;7.878;2022-07-25T14:04:16;98580.00;;;38.70
68012;BMP180;54794;48.348;7.878;2022-07-25T14:06:43;98576.00;;;38.70
68012;BMP180;54794;48.348;7.878;2022-07-25T14:09:10;98583.00;;;38.70
68012;BMP180;54794;48.348;7.878;2022-07-25T14:11:37;98571.00;;;38.60
68012;BMP180;54794;48.348;7.878;2022-07-25T14:14:04;98571.00;;;38.50
68012;BMP180;54794;48.348;7.878;2022-07-25T14:16:31;98569.00;;;38.50
68012;BMP180;54794;48.348;7.878;2022-07-25T14:19:00;98563.00;;;38.50